createdAt,value
2016-05-18T00:00:43.806Z,12.45
2016-05-18T00:01:43.996Z,12.42
2016-05-18T00:02:44.031Z,12.4
2016-05-18T00:03:44.064Z,12.35
2016-05-18T00:04:44.114Z,12.29
2016-05-18T00:05:44.133Z,12.2
2016-05-18T00:06:44.166Z,12.32
2016-05-18T00:07:44.200Z,12.24
2016-05-18T00:08:44.234Z,12.17
2016-05-18T00:09:44.283Z,12.2
2016-05-18T00:10:44.318Z,12.18
2016-05-18T00:11:44.352Z,12.07
2016-05-18T00:12:44.370Z,12.18
2016-05-18T00:13:44.248Z,12.09
2016-05-18T00:14:44.282Z,12.09
2016-05-18T00:15:44.471Z,12.07
2016-05-18T00:16:44.506Z,12.03
2016-05-18T00:17:44.540Z,11.99
2016-05-18T00:18:44.574Z,11.97
2016-05-18T00:19:44.435Z,11.97
2016-05-18T00:20:44.642Z,12.03
2016-05-18T00:21:44.659Z,12.04
2016-05-18T00:22:44.865Z,12.04
2016-05-18T00:23:44.743Z,12.06
2016-05-18T00:24:44.777Z,12.06
2016-05-18T00:25:44.812Z,12.09
2016-05-18T00:26:44.829Z,12.04
2016-05-18T00:27:44.722Z,12.04
2016-05-18T00:28:44.913Z,12.04
2016-05-18T00:29:44.931Z,12.03
2016-05-18T00:30:44.981Z,12.04
2016-05-18T00:31:44.842Z,11.99
2016-05-18T00:32:45.034Z,12.03
2016-05-18T00:33:45.067Z,12.03
2016-05-18T00:34:45.116Z,11.97
2016-05-18T00:35:45.150Z,12.02
2016-05-18T00:36:45.169Z,11.97
2016-05-18T00:37:45.983Z,11.99
2016-05-18T00:38:45.097Z,12.02
2016-05-18T00:39:45.271Z,11.99
2016-05-18T00:40:45.304Z,12.06
2016-05-18T00:41:45.355Z,12.09
2016-05-18T00:42:45.372Z,12.21
2016-05-18T00:43:45.406Z,12.17
2016-05-18T00:44:45.441Z,12.15
2016-05-18T00:45:45.474Z,12.18
2016-05-18T00:46:45.508Z,12.25
2016-05-18T00:47:45.385Z,12.28
2016-05-18T00:48:45.576Z,12.28
2016-05-18T00:49:45.609Z,12.24
2016-05-18T00:50:45.644Z,12.22
2016-05-18T00:51:45.662Z,12.22
2016-05-18T00:52:45.993Z,12.28
2016-05-18T00:53:45.762Z,12.32
2016-05-18T00:54:45.779Z,12.25
2016-05-18T00:55:45.814Z,12.29
2016-05-18T00:56:45.847Z,12.29
2016-05-18T00:57:45.725Z,12.27
2016-05-18T00:58:45.915Z,12.32
2016-05-18T00:59:45.934Z,12.37
2016-05-18T01:00:45.811Z,12.36
2016-05-18T01:01:45.845Z,12.37
2016-05-18T01:02:45.895Z,12.4
2016-05-18T01:03:45.928Z,12.47
2016-05-18T01:04:46.103Z,12.54
2016-05-18T01:05:46.153Z,12.57
2016-05-18T01:06:46.203Z,12.6
2016-05-18T01:07:46.502Z,12.58
2016-05-18T01:08:46.239Z,12.55
2016-05-18T01:09:46.274Z,12.64
2016-05-18T01:10:46.307Z,12.73
2016-05-18T01:11:46.341Z,12.67
2016-05-18T01:12:46.390Z,12.76
2016-05-18T01:13:46.410Z,12.7
2016-05-18T01:14:46.443Z,12.73
2016-05-18T01:15:46.476Z,12.83
2016-05-18T01:16:46.510Z,12.79
2016-05-18T01:17:46.545Z,12.9
2016-05-18T01:18:46.266Z,12.82
2016-05-18T01:19:46.612Z,12.75
2016-05-18T01:20:46.647Z,12.94
2016-05-18T01:21:46.524Z,12.8
2016-05-18T01:22:46.715Z,12.73
2016-05-18T01:23:46.764Z,12.82
2016-05-18T01:24:46.625Z,12.64
2016-05-18T01:25:46.817Z,12.75
2016-05-18T01:26:46.537Z,12.79
2016-05-18T01:27:46.884Z,12.73
2016-05-18T01:28:46.918Z,12.76
2016-05-18T01:29:46.952Z,12.83
2016-05-18T01:30:46.845Z,12.83
2016-05-18T01:31:47.019Z,12.8
2016-05-18T01:32:47.054Z,12.68
2016-05-18T01:33:47.088Z,12.73
2016-05-18T01:34:47.122Z,12.8
2016-05-18T01:35:47.155Z,12.79
2016-05-18T01:36:47.189Z,12.93
2016-05-18T01:37:47.552Z,12.91
2016-05-18T01:38:47.241Z,12.83
2016-05-18T01:39:47.275Z,12.87
2016-05-18T01:40:47.325Z,12.87
2016-05-18T01:41:47.360Z,12.86
2016-05-18T01:42:47.377Z,12.87
2016-05-18T01:43:47.427Z,12.78
2016-05-18T01:44:47.461Z,12.76
2016-05-18T01:45:47.495Z,12.76
2016-05-18T01:46:47.529Z,12.76
2016-05-18T01:47:47.547Z,12.78
2016-05-18T01:48:47.441Z,12.73
2016-05-18T01:49:47.474Z,12.79
2016-05-18T01:50:47.509Z,12.78
2016-05-18T01:51:47.682Z,12.9
2016-05-18T01:52:47.748Z,12.86
2016-05-18T01:53:47.767Z,12.93
2016-05-18T01:54:47.800Z,12.79
2016-05-18T01:55:47.818Z,12.93
2016-05-18T01:56:47.853Z,12.9
2016-05-18T01:57:47.887Z,12.83
2016-05-18T01:58:47.920Z,12.78
2016-05-18T01:59:47.814Z,12.82
2016-05-18T02:00:47.832Z,12.87
2016-05-18T02:01:48.022Z,12.9
2016-05-18T02:02:47.917Z,12.82
2016-05-18T02:03:48.106Z,12.83
2016-05-18T02:04:48.139Z,12.97
2016-05-18T02:05:48.174Z,12.9
2016-05-18T02:06:48.192Z,12.94
2016-05-18T02:07:48.460Z,12.9
2016-05-18T02:08:48.119Z,12.87
2016-05-18T02:09:48.310Z,12.91
2016-05-18T02:10:48.187Z,12.87
2016-05-18T02:11:48.378Z,12.97
2016-05-18T02:12:48.427Z,12.91
2016-05-18T02:13:48.445Z,12.93
2016-05-18T02:14:48.324Z,12.93
2016-05-18T02:15:48.341Z,12.85
2016-05-18T02:16:48.532Z,12.8
2016-05-18T02:17:48.581Z,12.83
2016-05-18T02:18:48.443Z,12.78
2016-05-18T02:19:48.633Z,12.78
2016-05-18T02:20:48.682Z,12.78
2016-05-18T02:21:48.717Z,12.87
2016-05-18T02:22:48.970Z,12.8
2016-05-18T02:23:48.629Z,12.87
2016-05-18T02:24:48.803Z,12.91
2016-05-18T02:25:48.837Z,12.93
2016-05-18T02:26:48.871Z,12.97
2016-05-18T02:27:48.904Z,12.94
2016-05-18T02:28:48.954Z,12.98
2016-05-18T02:29:48.972Z,12.94
2016-05-18T02:30:49.023Z,12.91
2016-05-18T02:31:49.040Z,12.87
2016-05-18T02:32:49.090Z,12.95
2016-05-18T02:33:49.108Z,12.76
2016-05-18T02:34:49.158Z,12.76
2016-05-18T02:35:49.176Z,12.75
2016-05-18T02:36:49.211Z,12.75
2016-05-18T02:37:49.525Z,12.8
2016-05-18T02:38:49.294Z,12.76
2016-05-18T02:39:49.328Z,12.73
2016-05-18T02:40:49.189Z,12.72
2016-05-18T02:41:49.380Z,12.73
2016-05-18T02:42:49.430Z,12.76
2016-05-18T02:43:49.447Z,12.7
2016-05-18T02:44:49.482Z,12.61
2016-05-18T02:45:49.531Z,12.6
2016-05-18T02:46:49.410Z,12.6
2016-05-18T02:47:49.583Z,12.64
2016-05-18T02:48:49.477Z,12.54
2016-05-18T02:49:49.651Z,12.62
2016-05-18T02:50:49.530Z,12.6
2016-05-18T02:51:49.719Z,12.61
2016-05-18T02:52:50.050Z,12.6
2016-05-18T02:53:49.632Z,12.6
2016-05-18T02:54:49.821Z,12.55
2016-05-18T02:55:49.854Z,12.55
2016-05-18T02:56:49.732Z,12.57
2016-05-18T02:57:49.923Z,12.37
2016-05-18T02:58:49.957Z,12.39
2016-05-18T02:59:49.990Z,12.4
2016-05-18T03:00:50.025Z,12.46
2016-05-18T03:01:49.918Z,12.49
2016-05-18T03:02:50.092Z,12.46
2016-05-18T03:03:50.126Z,12.43
2016-05-18T03:04:50.020Z,12.45
2016-05-18T03:05:50.195Z,12.46
2016-05-18T03:06:50.228Z,12.53
2016-05-18T03:07:50.325Z,12.47
2016-05-18T03:08:50.311Z,12.49
2016-05-18T03:09:50.330Z,12.5
2016-05-18T03:10:50.364Z,12.5
2016-05-18T03:11:50.397Z,12.57
2016-05-18T03:12:50.292Z,12.6
2016-05-18T03:13:50.482Z,12.6
2016-05-18T03:14:50.499Z,12.49
2016-05-18T03:15:50.549Z,12.54
2016-05-18T03:16:50.568Z,12.49
2016-05-18T03:17:50.602Z,12.36
2016-05-18T03:18:50.635Z,12.25
2016-05-18T03:19:50.670Z,12.28
2016-05-18T03:20:50.547Z,12.22
2016-05-18T03:21:50.737Z,12.29
2016-05-18T03:22:51.271Z,12.28
2016-05-18T03:23:50.648Z,12.35
2016-05-18T03:24:50.840Z,12.43
2016-05-18T03:25:50.873Z,12.47
2016-05-18T03:26:50.907Z,12.43
2016-05-18T03:27:50.941Z,12.45
2016-05-18T03:28:50.975Z,12.37
2016-05-18T03:29:51.009Z,12.5
2016-05-18T03:30:51.043Z,12.4
2016-05-18T03:31:50.921Z,12.18
2016-05-18T03:32:51.126Z,12.28
2016-05-18T03:33:51.145Z,12.25
2016-05-18T03:34:51.163Z,12.1
2016-05-18T03:35:51.103Z,12.24
2016-05-18T03:36:51.090Z,12.36
2016-05-18T03:37:51.249Z,12.25
2016-05-18T03:38:51.315Z,12.07
2016-05-18T03:39:51.347Z,12.07
2016-05-18T03:40:51.382Z,12.18
2016-05-18T03:41:51.244Z,12.06
2016-05-18T03:42:51.450Z,11.97
2016-05-18T03:43:51.469Z,12.06
2016-05-18T03:44:51.519Z,12.04
2016-05-18T03:45:51.396Z,12.1
2016-05-18T03:46:51.430Z,12.12
2016-05-18T03:47:51.605Z,12.07
2016-05-18T03:48:51.638Z,12.04
2016-05-18T03:49:51.672Z,12.17
2016-05-18T03:50:51.722Z,12.1
2016-05-18T03:51:51.740Z,12.28
2016-05-18T03:52:51.790Z,11.99
2016-05-18T03:53:51.807Z,12.04
2016-05-18T03:54:51.843Z,12.04
2016-05-18T03:55:51.876Z,11.9
2016-05-18T03:56:51.910Z,12
2016-05-18T03:57:51.944Z,12.02
2016-05-18T03:58:51.821Z,11.95
2016-05-18T03:59:52.012Z,12.04
2016-05-18T04:00:52.045Z,12.07
2016-05-18T04:01:52.095Z,12.09
2016-05-18T04:02:51.973Z,12.2
2016-05-18T04:03:52.163Z,12.18
2016-05-18T04:04:52.181Z,12.17
2016-05-18T04:05:52.075Z,12.22
2016-05-18T04:06:52.250Z,12.27
2016-05-18T04:07:52.142Z,12.27
2016-05-18T04:08:52.161Z,12.27
2016-05-18T04:09:52.351Z,12.28
2016-05-18T04:10:52.400Z,12.25
2016-05-18T04:11:52.419Z,12.27
2016-05-18T04:12:52.453Z,12.18
2016-05-18T04:13:52.487Z,12.31
2016-05-18T04:14:52.521Z,12.27
2016-05-18T04:15:52.586Z,12.31
2016-05-18T04:16:52.588Z,12.31
2016-05-18T04:17:52.622Z,12.28
2016-05-18T04:18:52.500Z,12.24
2016-05-18T04:19:52.690Z,12.18
2016-05-18T04:20:52.569Z,12.15
2016-05-18T04:21:52.602Z,12.17
2016-05-18T04:22:52.793Z,12.2
2016-05-18T04:23:52.826Z,12.32
2016-05-18T04:24:52.704Z,12.17
2016-05-18T04:25:52.894Z,12.22
2016-05-18T04:26:52.756Z,12.27
2016-05-18T04:27:52.963Z,12.31
2016-05-18T04:28:52.824Z,12.42
2016-05-18T04:29:53.029Z,12.29
2016-05-18T04:30:53.064Z,12.21
2016-05-18T04:31:53.097Z,12.24
2016-05-18T04:32:53.131Z,12.32
2016-05-18T04:33:53.009Z,12.24
2016-05-18T04:34:53.043Z,12.24
2016-05-18T04:35:53.421Z,12.32
2016-05-18T04:36:53.268Z,12.4
2016-05-18T04:37:53.145Z,12.32
2016-05-18T04:38:53.336Z,12.37
2016-05-18T04:39:53.370Z,12.47
2016-05-18T04:40:53.231Z,12.42
2016-05-18T04:41:53.437Z,12.57
2016-05-18T04:42:53.158Z,12.57
2016-05-18T04:43:53.333Z,12.58
2016-05-18T04:44:53.523Z,12.55
2016-05-18T04:45:53.558Z,12.61
2016-05-18T04:46:53.607Z,12.62
2016-05-18T04:47:53.625Z,12.76
2016-05-18T04:48:53.690Z,12.78
2016-05-18T04:49:53.708Z,12.8
2016-05-18T04:50:53.727Z,12.75
2016-05-18T04:51:53.761Z,12.82
2016-05-18T04:52:53.952Z,12.76
2016-05-18T04:53:53.844Z,12.72
2016-05-18T04:54:53.707Z,12.79
2016-05-18T04:55:53.584Z,12.7
2016-05-18T04:56:53.946Z,12.76
2016-05-18T04:57:53.823Z,12.68
2016-05-18T04:58:54.015Z,12.65
2016-05-18T04:59:53.735Z,12.79
2016-05-18T05:00:53.910Z,12.8
2016-05-18T05:01:54.101Z,12.79
2016-05-18T05:02:54.150Z,12.87
2016-05-18T05:03:54.168Z,12.76
2016-05-18T05:04:54.217Z,12.7
2016-05-18T05:05:54.251Z,12.72
2016-05-18T05:06:54.114Z,12.54
2016-05-18T05:07:54.194Z,12.73
2016-05-18T05:08:54.337Z,12.76
2016-05-18T05:09:54.373Z,12.79
2016-05-18T05:10:54.405Z,12.8
2016-05-18T05:11:54.455Z,12.79
2016-05-18T05:12:54.489Z,12.76
2016-05-18T05:13:54.523Z,12.78
2016-05-18T05:14:54.557Z,12.78
2016-05-18T05:15:54.435Z,12.82
2016-05-18T05:16:54.609Z,12.76
2016-05-18T05:17:54.644Z,12.76
2016-05-18T05:18:54.694Z,12.85
2016-05-18T05:19:54.727Z,12.86
2016-05-18T05:20:54.604Z,12.94
2016-05-18T05:21:54.638Z,12.94
2016-05-18T05:22:54.829Z,12.95
2016-05-18T05:23:54.863Z,12.95
2016-05-18T05:24:54.897Z,12.93
2016-05-18T05:25:54.915Z,12.95
2016-05-18T05:26:54.965Z,12.95
2016-05-18T05:27:54.842Z,13
2016-05-18T05:28:55.017Z,12.93
2016-05-18T05:29:54.894Z,12.98
2016-05-18T05:30:55.100Z,13
2016-05-18T05:31:55.134Z,13.11
2016-05-18T05:32:55.168Z,13.2
2016-05-18T05:33:55.202Z,13.23
2016-05-18T05:34:55.220Z,13.15
2016-05-18T05:35:55.254Z,13.23
2016-05-18T05:36:55.303Z,13.27
2016-05-18T05:37:55.370Z,13.23
2016-05-18T05:38:55.356Z,13.3
2016-05-18T05:39:55.390Z,13.33
2016-05-18T05:40:55.424Z,13.28
2016-05-18T05:41:55.473Z,13.31
2016-05-18T05:42:55.508Z,13.41
2016-05-18T05:43:55.541Z,13.27
2016-05-18T05:44:55.559Z,13.28
2016-05-18T05:45:55.297Z,13.28
2016-05-18T05:46:55.643Z,13.25
2016-05-18T05:47:55.677Z,13.31
2016-05-18T05:48:55.695Z,13.23
2016-05-18T05:49:55.588Z,13.27
2016-05-18T05:50:55.779Z,13.28
2016-05-18T05:51:55.813Z,13.3
2016-05-18T05:52:55.830Z,13.3
2016-05-18T05:53:55.724Z,13.16
2016-05-18T05:54:55.915Z,13.11
2016-05-18T05:55:55.949Z,13.11
2016-05-18T05:56:55.967Z,13.19
2016-05-18T05:57:56.002Z,13.2
2016-05-18T05:58:56.066Z,13.18
2016-05-18T05:59:56.068Z,13.18
2016-05-18T06:00:55.790Z,13.15
2016-05-18T06:01:56.152Z,13.12
2016-05-18T06:02:56.187Z,13.18
2016-05-18T06:03:56.220Z,13.18
2016-05-18T06:04:56.254Z,13.19
2016-05-18T06:05:56.273Z,13.11
2016-05-18T06:06:56.322Z,13.05
2016-05-18T06:07:56.200Z,13.12
2016-05-18T06:08:56.390Z,13.18
2016-05-18T06:09:56.423Z,13.2
2016-05-18T06:10:56.301Z,13.18
2016-05-18T06:11:56.492Z,13.11
2016-05-18T06:12:56.509Z,13.15
2016-05-18T06:13:56.559Z,13.25
2016-05-18T06:14:56.577Z,13.3
2016-05-18T06:15:56.627Z,13.35
2016-05-18T06:16:56.662Z,13.35
2016-05-18T06:17:56.695Z,13.39
2016-05-18T06:18:56.729Z,13.38
2016-05-18T06:19:56.763Z,13.37
2016-05-18T06:20:56.797Z,13.35
2016-05-18T06:21:56.831Z,13.52
2016-05-18T06:22:56.865Z,13.62
2016-05-18T06:23:56.899Z,13.6
2016-05-18T06:24:56.933Z,13.7
2016-05-18T06:25:56.966Z,13.71
2016-05-18T06:26:57.016Z,13.71
2016-05-18T06:27:57.035Z,13.78
2016-05-18T06:28:57.068Z,13.72
2016-05-18T06:29:56.962Z,13.7
2016-05-18T06:30:57.137Z,13.78
2016-05-18T06:31:57.170Z,13.85
2016-05-18T06:32:57.220Z,13.85
2016-05-18T06:33:57.270Z,13.99
2016-05-18T06:34:57.288Z,14.05
2016-05-18T06:35:57.166Z,14.05
2016-05-18T06:36:57.356Z,14.1
2016-05-18T06:37:57.546Z,14.05
2016-05-18T06:38:57.423Z,14.17
2016-05-18T06:39:57.457Z,14.23
2016-05-18T06:40:57.507Z,14.22
2016-05-18T06:41:57.526Z,14.29
2016-05-18T06:42:57.559Z,14.3
2016-05-18T06:43:57.608Z,14.26
2016-05-18T06:44:57.642Z,14.3
2016-05-18T06:45:57.677Z,14.44
2016-05-18T06:46:57.539Z,14.33
2016-05-18T06:47:57.728Z,14.43
2016-05-18T06:48:57.779Z,14.6
2016-05-18T06:49:57.813Z,14.62
2016-05-18T06:50:57.847Z,14.58
2016-05-18T06:51:57.709Z,14.66
2016-05-18T06:52:58.149Z,14.62
2016-05-18T06:53:57.933Z,14.69
2016-05-18T06:54:57.811Z,14.78
2016-05-18T06:55:58.016Z,14.88
2016-05-18T06:56:58.050Z,14.94
2016-05-18T06:57:58.178Z,15.02
2016-05-18T06:58:58.118Z,15.07
2016-05-18T06:59:58.168Z,15.14
2016-05-18T07:00:58.202Z,15.22
2016-05-18T07:01:58.235Z,15.19
2016-05-18T07:02:58.269Z,15.22
2016-05-18T07:03:58.304Z,15.18
2016-05-18T07:04:58.337Z,15.37
2016-05-18T07:05:58.215Z,15.37
2016-05-18T07:06:58.405Z,15.28
2016-05-18T07:07:58.439Z,15.47
2016-05-18T07:08:58.489Z,15.37
2016-05-18T07:09:58.367Z,15.54
2016-05-18T07:10:58.541Z,15.54
2016-05-18T07:11:58.590Z,15.61
2016-05-18T07:12:58.625Z,15.59
2016-05-18T07:13:58.673Z,15.58
2016-05-18T07:14:58.537Z,15.65
2016-05-18T07:15:58.570Z,15.7
2016-05-18T07:16:58.604Z,15.75
2016-05-18T07:17:58.809Z,15.77
2016-05-18T07:18:58.844Z,15.82
2016-05-18T07:19:58.894Z,15.88
2016-05-18T07:20:58.927Z,15.88
2016-05-18T07:21:58.961Z,15.92
2016-05-18T07:22:58.995Z,15.86
2016-05-18T07:23:59.029Z,15.94
2016-05-18T07:24:58.907Z,16.01
2016-05-18T07:25:59.097Z,16.12
2016-05-18T07:26:59.131Z,16.32
2016-05-18T07:27:59.165Z,16.46
2016-05-18T07:28:59.214Z,16.41
2016-05-18T07:29:59.249Z,16.56
2016-05-18T07:30:59.127Z,16.54
2016-05-18T07:31:59.333Z,16.54
2016-05-18T07:32:59.382Z,16.53
2016-05-18T07:33:59.399Z,16.53
2016-05-18T07:34:59.465Z,16.39
2016-05-18T07:35:59.468Z,16.54
2016-05-18T07:36:59.361Z,16.6
2016-05-18T07:38:00.020Z,16.64
2016-05-18T07:38:59.429Z,16.65
2016-05-18T07:39:59.618Z,16.74
2016-05-18T07:40:59.654Z,16.76
2016-05-18T07:41:59.703Z,16.84
2016-05-18T07:42:59.737Z,16.91
2016-05-18T07:43:59.770Z,17.08
2016-05-18T07:44:59.804Z,17.12
2016-05-18T07:45:59.854Z,17.41
2016-05-18T07:46:59.904Z,17.6
2016-05-18T07:47:59.937Z,17.67
2016-05-18T07:48:59.956Z,17.67
2016-05-18T07:50:00.020Z,17.7
2016-05-18T07:51:00.039Z,18.01
2016-05-18T07:52:00.073Z,18.19
2016-05-18T07:53:00.122Z,18.53
2016-05-18T07:54:00.156Z,18.77
2016-05-18T07:55:00.191Z,18.88
2016-05-18T07:56:00.225Z,18.92
2016-05-18T07:57:00.274Z,18.8
2016-05-18T07:58:00.511Z,18.63
2016-05-18T07:59:00.341Z,18.49
2016-05-18T08:00:00.392Z,18.52
2016-05-18T08:01:00.426Z,18.71
2016-05-18T08:02:00.475Z,18.62
2016-05-18T08:03:00.510Z,18.98
2016-05-18T08:04:00.558Z,19.39
2016-05-18T08:05:00.577Z,19.3
2016-05-18T08:06:00.627Z,19.44
2016-05-18T08:07:00.363Z,19.76
2016-05-18T08:08:00.741Z,19.84
2016-05-18T08:09:00.760Z,20.18
2016-05-18T08:10:00.794Z,20.24
2016-05-18T08:11:00.827Z,20.56
2016-05-18T08:12:00.877Z,20.74
2016-05-18T08:13:00.926Z,21.54
2016-05-18T08:14:00.648Z,22.06
2016-05-18T08:15:00.995Z,21.8
2016-05-18T08:16:01.044Z,22.22
2016-05-18T08:17:01.078Z,21.79
2016-05-18T08:18:01.111Z,21.67
2016-05-18T08:19:01.161Z,21.92
2016-05-18T08:20:01.039Z,22.15
2016-05-18T08:21:01.089Z,22.43
2016-05-18T08:22:01.279Z,22.57
2016-05-18T08:23:01.189Z,22.3
2016-05-18T08:24:01.378Z,22.55
2016-05-18T08:25:01.412Z,22.78
2016-05-18T08:26:01.306Z,22.73
2016-05-18T08:27:01.339Z,23.05
2016-05-18T08:28:01.555Z,23.1
2016-05-18T08:29:01.633Z,23.09
2016-05-18T08:30:01.723Z,23.76
2016-05-18T08:31:01.815Z,24.18
2016-05-18T08:32:01.892Z,24.23
2016-05-18T08:33:01.976Z,23.12
2016-05-18T08:34:02.026Z,22.1
2016-05-18T08:35:01.967Z,21.07
2016-05-18T08:36:02.155Z,20.31
2016-05-18T08:37:02.049Z,19.67
2016-05-18T08:38:02.283Z,19.24
2016-05-18T08:39:02.322Z,19.4
2016-05-18T08:40:02.377Z,19.3
2016-05-18T08:41:02.104Z,19.44
2016-05-18T08:42:02.331Z,19.88
2016-05-18T08:43:02.386Z,19.76
2016-05-18T08:44:02.563Z,19.84
2016-05-18T08:45:02.614Z,19.7
2016-05-18T08:46:02.666Z,19.27
2016-05-18T08:47:02.703Z,18.98
2016-05-18T08:48:02.753Z,18.78
2016-05-18T08:49:02.789Z,18.49
2016-05-18T08:50:02.823Z,18.47
2016-05-18T08:51:02.732Z,18.5
2016-05-18T08:52:02.908Z,18.53
2016-05-18T08:53:03.333Z,18.65
2016-05-18T08:54:02.992Z,18.63
2016-05-18T08:55:03.042Z,18.5
2016-05-18T08:56:02.779Z,18.56
2016-05-18T08:57:03.125Z,18.68
2016-05-18T08:58:03.159Z,18.92
2016-05-18T08:59:03.224Z,18.86
2016-05-18T09:00:03.243Z,18.77
2016-05-18T09:01:03.292Z,18.86
2016-05-18T09:02:03.341Z,18.66
2016-05-18T09:03:03.360Z,18.88
2016-05-18T09:04:03.410Z,19.04
2016-05-18T09:05:03.303Z,19.19
2016-05-18T09:06:03.337Z,19.26
2016-05-18T09:07:03.527Z,19.55
2016-05-18T09:08:03.717Z,19.41
2016-05-18T09:09:03.626Z,19.7
2016-05-18T09:10:03.660Z,19.95
2016-05-18T09:11:03.710Z,20.5
2016-05-18T09:12:03.743Z,20.41
2016-05-18T09:13:03.621Z,20.4
2016-05-18T09:14:03.843Z,20.32
2016-05-18T09:15:03.861Z,19.92
2016-05-18T09:16:03.911Z,19.44
2016-05-18T09:17:03.929Z,19.33
2016-05-18T09:18:03.979Z,19.3
2016-05-18T09:19:04.044Z,19.21
2016-05-18T09:20:04.078Z,19.27
2016-05-18T09:21:04.127Z,19.24
2016-05-18T09:22:04.005Z,18.9
2016-05-18T09:23:04.383Z,18.71
2016-05-18T09:24:04.245Z,18.6
2016-05-18T09:25:04.263Z,18.66
2016-05-18T09:26:04.313Z,18.65
2016-05-18T09:27:04.206Z,18.52
2016-05-18T09:28:04.396Z,18.47
2016-05-18T09:29:04.430Z,18.38
2016-05-18T09:30:04.479Z,18.4
2016-05-18T09:31:04.529Z,18.45
2016-05-18T09:32:04.610Z,18.5
2016-05-18T09:33:04.597Z,18.34
2016-05-18T09:34:18.787Z,18.34
2016-05-18T09:35:04.665Z,18.5
2016-05-18T09:36:04.730Z,18.41
2016-05-18T09:37:04.748Z,18.88
2016-05-18T09:38:04.657Z,19.54
2016-05-18T09:39:04.848Z,20.37
2016-05-18T09:40:04.866Z,20.8
2016-05-18T09:41:04.931Z,20.9
2016-05-18T09:42:04.965Z,20.75
2016-05-18T09:43:05.014Z,20.7
2016-05-18T09:44:05.032Z,20.95
2016-05-18T09:45:04.926Z,21.36
2016-05-18T09:46:05.117Z,21.52
2016-05-18T09:47:05.165Z,21.8
2016-05-18T09:48:05.200Z,21.99
2016-05-18T09:49:05.093Z,21.83
2016-05-18T09:50:05.283Z,21.46
2016-05-18T09:51:05.348Z,20.96
2016-05-18T09:52:05.367Z,20.5
2016-05-18T09:53:05.729Z,20.24
2016-05-18T09:54:05.450Z,19.94
2016-05-18T09:55:05.500Z,19.62
2016-05-18T09:56:05.534Z,19.41
2016-05-18T09:57:05.584Z,19.29
2016-05-18T09:58:05.617Z,19.26
2016-05-18T09:59:05.667Z,19.08
2016-05-18T10:00:05.544Z,18.93
2016-05-18T10:01:05.750Z,18.96
2016-05-18T10:02:05.628Z,18.83
2016-05-18T10:03:05.819Z,18.9
2016-05-18T10:04:05.868Z,18.98
2016-05-18T10:05:05.902Z,19.08
2016-05-18T10:06:05.967Z,19.14
2016-05-18T10:07:05.985Z,19.15
2016-05-18T10:08:06.035Z,18.93
2016-05-18T10:09:05.929Z,18.96
2016-05-18T10:10:05.962Z,18.98
2016-05-18T10:11:06.168Z,19.04
2016-05-18T10:12:06.187Z,18.96
2016-05-18T10:13:06.235Z,18.95
2016-05-18T10:14:06.301Z,18.89
2016-05-18T10:15:06.320Z,18.9
2016-05-18T10:16:06.353Z,18.74
2016-05-18T10:17:06.231Z,18.75
2016-05-18T10:18:06.437Z,18.68
2016-05-18T10:19:06.315Z,18.63
2016-05-18T10:20:06.208Z,18.59
2016-05-18T10:21:06.242Z,18.52
2016-05-18T10:22:06.604Z,18.52
2016-05-18T10:23:06.575Z,18.44
2016-05-18T10:24:06.515Z,18.53
2016-05-18T10:25:06.706Z,18.49
2016-05-18T10:26:06.755Z,18.55
2016-05-18T10:27:06.820Z,18.84
2016-05-18T10:28:06.823Z,19
2016-05-18T10:29:06.857Z,19.18
2016-05-18T10:30:06.750Z,19.27
2016-05-18T10:31:06.956Z,19.12
2016-05-18T10:32:06.991Z,18.95
2016-05-18T10:33:06.868Z,19
2016-05-18T10:34:06.917Z,19.02
2016-05-18T10:35:07.108Z,19.07
2016-05-18T10:36:06.986Z,19.07
2016-05-18T10:37:07.191Z,18.98
2016-05-18T10:38:07.349Z,18.95
2016-05-18T10:39:07.165Z,18.84
2016-05-18T10:40:07.308Z,18.88
2016-05-18T10:41:07.358Z,18.7
2016-05-18T10:42:07.252Z,18.52
2016-05-18T10:43:07.426Z,18.55
2016-05-18T10:44:07.460Z,18.43
2016-05-18T10:45:07.510Z,18.41
2016-05-18T10:46:07.559Z,18.22
2016-05-18T10:47:07.577Z,18.19
2016-05-18T10:48:07.627Z,18.44
2016-05-18T10:49:07.521Z,18.23
2016-05-18T10:50:07.695Z,18.25
2016-05-18T10:51:07.728Z,18.25
2016-05-18T10:52:07.763Z,18.18
2016-05-18T10:53:07.656Z,18.26
2016-05-18T10:54:07.893Z,18.28
2016-05-18T10:55:07.881Z,18.35
2016-05-18T10:56:07.930Z,18.29
2016-05-18T10:57:07.964Z,18.25
2016-05-18T10:58:08.014Z,18.28
2016-05-18T10:59:07.891Z,18.15
2016-05-18T11:00:08.081Z,18.31
2016-05-18T11:01:07.959Z,18.37
2016-05-18T11:02:08.165Z,18.38
2016-05-18T11:03:08.183Z,18.55
2016-05-18T11:04:08.233Z,18.49
2016-05-18T11:05:08.282Z,18.6
2016-05-18T11:06:08.316Z,18.53
2016-05-18T11:07:08.350Z,18.58
2016-05-18T11:08:08.478Z,18.66
2016-05-18T11:09:08.433Z,18.78
2016-05-18T11:10:08.467Z,18.84
2016-05-18T11:11:08.361Z,19.12
2016-05-18T11:12:08.551Z,19.26
2016-05-18T11:13:08.429Z,19.48
2016-05-18T11:14:08.619Z,19.7
2016-05-18T11:15:08.668Z,19.92
2016-05-18T11:16:08.701Z,20.34
2016-05-18T11:17:08.737Z,20.62
2016-05-18T11:18:08.770Z,20.97
2016-05-18T11:19:08.663Z,21.11
2016-05-18T11:20:08.869Z,21.15
2016-05-18T11:21:08.887Z,21.07
2016-05-18T11:22:08.937Z,21.02
2016-05-18T11:23:08.987Z,21.6
2016-05-18T11:24:08.895Z,21.69
2016-05-18T11:25:09.054Z,21.61
2016-05-18T11:26:09.104Z,21.51
2016-05-18T11:27:09.138Z,21.2
2016-05-18T11:28:09.173Z,21.07
2016-05-18T11:29:09.222Z,21.36
2016-05-18T11:30:09.271Z,21.35
2016-05-18T11:31:09.305Z,21.24
2016-05-18T11:32:09.339Z,21.06
2016-05-18T11:33:09.388Z,20.96
2016-05-18T11:34:09.282Z,20.92
2016-05-18T11:35:09.472Z,20.52
2016-05-18T11:36:09.522Z,20.44
2016-05-18T11:37:09.555Z,20.39
2016-05-18T11:38:09.589Z,20.37
2016-05-18T11:39:09.639Z,20.29
2016-05-18T11:40:09.516Z,20.22
2016-05-18T11:41:09.722Z,20.21
2016-05-18T11:42:09.616Z,20.48
2016-05-18T11:43:09.807Z,20.69
2016-05-18T11:44:09.699Z,20.75
2016-05-18T11:45:09.890Z,20.8
2016-05-18T11:46:09.782Z,21.05
2016-05-18T11:47:09.988Z,21.36
2016-05-18T11:48:10.023Z,21.76
2016-05-18T11:49:10.056Z,22.1
2016-05-18T11:50:09.951Z,22.1
2016-05-18T11:51:10.171Z,21.61
2016-05-18T11:52:10.189Z,21.32
2016-05-18T11:53:10.084Z,21.3
2016-05-18T11:54:10.289Z,21.32
2016-05-18T11:55:10.323Z,21.95
2016-05-18T11:56:10.356Z,21.93
2016-05-18T11:57:10.250Z,21.8
2016-05-18T11:58:10.300Z,21.83
2016-05-18T11:59:10.333Z,21.99
2016-05-18T12:00:10.383Z,22.1
2016-05-18T12:01:10.433Z,21.77
2016-05-18T12:02:10.622Z,21.77
2016-05-18T12:03:10.516Z,21.43
2016-05-18T12:04:10.566Z,21.21
2016-05-18T12:05:10.756Z,20.93
2016-05-18T12:06:10.789Z,20.87
2016-05-18T12:07:10.683Z,20.55
2016-05-18T12:08:11.467Z,20.36
2016-05-18T12:09:10.922Z,20.31
2016-05-18T12:10:10.800Z,20.37
2016-05-18T12:11:11.022Z,20.22
2016-05-18T12:12:11.056Z,20.11
2016-05-18T12:13:10.933Z,19.94
2016-05-18T12:14:11.171Z,19.88
2016-05-18T12:15:11.188Z,19.88
2016-05-18T12:16:11.066Z,19.77
2016-05-18T12:17:11.257Z,19.77
2016-05-18T12:18:11.306Z,19.56
2016-05-18T12:19:11.341Z,19.47
2016-05-18T12:20:11.218Z,19.39
2016-05-18T12:21:11.423Z,19.39
2016-05-18T12:22:11.474Z,19.31
2016-05-18T12:23:11.679Z,19.31
2016-05-18T12:24:11.791Z,19.27
2016-05-18T12:25:11.576Z,19.18
2016-05-18T12:26:11.640Z,19.09
2016-05-18T12:27:11.690Z,19.11
2016-05-18T12:28:11.552Z,18.99
2016-05-18T12:29:11.758Z,18.93
2016-05-18T12:30:11.792Z,18.9
2016-05-18T12:31:11.685Z,18.81
2016-05-18T12:32:11.875Z,18.84
2016-05-18T12:33:11.894Z,18.81
2016-05-18T12:34:11.958Z,18.78
2016-05-18T12:35:11.993Z,18.81
2016-05-18T12:36:12.027Z,18.73
2016-05-18T12:37:12.076Z,18.77
2016-05-18T12:38:11.798Z,18.66
2016-05-18T12:39:12.175Z,18.75
2016-05-18T12:40:12.177Z,18.73
2016-05-18T12:41:12.227Z,18.77
2016-05-18T12:42:12.261Z,18.78
2016-05-18T12:43:12.311Z,18.8
2016-05-18T12:44:12.329Z,18.81
2016-05-18T12:45:12.379Z,18.71
2016-05-18T12:46:12.272Z,18.71
2016-05-18T12:47:12.307Z,18.77
2016-05-18T12:48:12.496Z,18.83
2016-05-18T12:49:12.529Z,18.77
2016-05-18T12:50:12.580Z,18.68
2016-05-18T12:51:12.614Z,18.74
2016-05-18T12:52:12.663Z,18.74
2016-05-18T12:53:13.057Z,18.7
2016-05-18T12:54:12.731Z,18.71
2016-05-18T12:55:12.765Z,18.75
2016-05-18T12:56:12.799Z,18.63
2016-05-18T12:57:12.849Z,18.7